createdAt,value
2018-12-14T00:02:20.640Z,14.67
2018-12-14T00:04:49.533Z,15.97
2018-12-14T00:07:18.445Z,15.87
2018-12-14T00:09:47.666Z,15.13
2018-12-14T00:12:16.689Z,13.90
2018-12-14T00:14:45.596Z,16.07
2018-12-14T00:17:15.152Z,15.10
2018-12-14T00:19:44.001Z,14.80
2018-12-14T00:22:13.476Z,15.53
2018-12-14T00:24:42.417Z,13.13
2018-12-14T00:27:11.651Z,12.80
2018-12-14T00:29:40.862Z,12.50
2018-12-14T00:32:10.508Z,14.73
2018-12-14T00:34:39.512Z,12.50
2018-12-14T00:37:08.398Z,13.40
2018-12-14T00:39:37.987Z,11.93
2018-12-14T00:42:07.431Z,12.53
2018-12-14T00:44:36.299Z,12.80
2018-12-14T00:47:05.419Z,13.43
2018-12-14T00:49:34.374Z,12.87
2018-12-14T00:52:03.359Z,14.93
2018-12-14T00:54:32.365Z,11.17
2018-12-14T00:57:01.248Z,12.30
2018-12-14T00:59:30.260Z,11.27
2018-12-14T01:01:59.338Z,12.30
2018-12-14T01:04:28.241Z,9.43
2018-12-14T01:06:57.151Z,12.70
2018-12-14T01:09:26.757Z,9.87
2018-12-14T01:11:58.313Z,12.33
2018-12-14T01:14:26.891Z,10.83
2018-12-14T01:16:55.823Z,11.90
2018-12-14T01:19:24.743Z,10.40
2018-12-14T01:21:53.759Z,11.40
2018-12-14T01:24:22.811Z,9.30
2018-12-14T01:26:51.740Z,11.53
2018-12-14T01:29:20.700Z,10.17
2018-12-14T01:31:49.555Z,9.27
2018-12-14T01:34:18.531Z,8.70
2018-12-14T01:36:47.889Z,9.20
2018-12-14T01:39:17.062Z,8.77
2018-12-14T01:41:45.926Z,13.80
2018-12-14T01:44:15.265Z,10.07
2018-12-14T01:46:44.854Z,10.33
2018-12-14T01:49:13.830Z,10.53
2018-12-14T01:51:42.854Z,11.77
2018-12-14T01:54:12.267Z,10.40
2018-12-14T01:56:41.559Z,8.63
2018-12-14T01:59:10.602Z,10.00
2018-12-14T02:01:39.898Z,12.63
2018-12-14T02:04:08.830Z,9.60
2018-12-14T02:06:37.893Z,10.00
2018-12-14T02:09:07.515Z,10.20
2018-12-14T02:11:36.386Z,11.03
2018-12-14T02:14:05.525Z,9.47
2018-12-14T02:16:34.377Z,10.67
2018-12-14T02:19:03.288Z,11.20
2018-12-14T02:21:32.318Z,11.30
2018-12-14T02:24:01.283Z,9.87
2018-12-14T02:26:30.345Z,11.10
2018-12-14T02:28:59.316Z,9.50
2018-12-14T02:31:28.396Z,11.05
2018-12-14T02:33:57.293Z,8.70
2018-12-14T02:36:26.753Z,11.13
2018-12-14T02:38:56.007Z,11.27
2018-12-14T02:41:25.037Z,10.03
2018-12-14T02:43:53.922Z,10.00
2018-12-14T02:46:22.792Z,10.43
2018-12-14T02:48:51.761Z,11.53
2018-12-14T02:51:20.770Z,7.63
2018-12-14T02:53:49.658Z,8.87
2018-12-14T02:56:18.662Z,7.93
2018-12-14T02:58:47.603Z,9.63
2018-12-14T03:01:16.584Z,8.57
2018-12-14T03:03:45.562Z,10.47
2018-12-14T03:06:14.783Z,9.37
2018-12-14T03:08:43.650Z,12.20
2018-12-14T03:11:12.560Z,9.93
2018-12-14T03:13:41.473Z,10.50
2018-12-14T03:16:10.555Z,10.60
2018-12-14T03:18:40.129Z,12.17
2018-12-14T03:21:09.016Z,9.53
2018-12-14T03:23:37.946Z,12.00
2018-12-14T03:26:07.005Z,12.60
2018-12-14T03:28:36.744Z,10.77
2018-12-14T03:31:05.668Z,13.03
2018-12-14T03:33:36.596Z,13.17
2018-12-14T03:36:05.962Z,10.63
2018-12-14T03:38:35.129Z,10.97
2018-12-14T03:41:04.121Z,10.80
2018-12-14T03:43:33.018Z,13.20
2018-12-14T03:46:08.519Z,11.73
2018-12-14T03:48:43.264Z,10.00
2018-12-14T03:51:20.295Z,11.47
2018-12-14T03:53:55.339Z,11.10
2018-12-14T03:56:24.281Z,9.80
2018-12-14T03:58:53.268Z,12.43
2018-12-14T04:01:22.244Z,12.23
2018-12-14T04:03:51.210Z,11.83
2018-12-14T04:06:20.107Z,10.77
2018-12-14T04:08:49.039Z,11.20
2018-12-14T04:11:17.992Z,11.57
2018-12-14T04:13:47.098Z,12.30
2018-12-14T04:16:16.125Z,8.63
2018-12-14T04:18:45.094Z,12.17
2018-12-14T04:21:14.207Z,11.47
2018-12-14T04:23:43.250Z,9.43
2018-12-14T04:26:12.772Z,11.40
2018-12-14T04:28:42.963Z,9.87
2018-12-14T04:31:12.115Z,10.80
2018-12-14T04:33:41.136Z,12.83
2018-12-14T04:36:10.313Z,9.63
2018-12-14T04:38:39.234Z,10.93
2018-12-14T04:41:08.258Z,11.50
2018-12-14T04:43:37.223Z,11.10
2018-12-14T04:46:06.240Z,10.07
2018-12-14T04:48:35.214Z,11.80
2018-12-14T04:51:04.177Z,8.00
2018-12-14T04:53:33.159Z,10.20
2018-12-14T04:56:02.457Z,10.90
2018-12-14T04:58:31.583Z,9.53
2018-12-14T05:01:00.525Z,11.53
2018-12-14T05:03:29.500Z,11.13
2018-12-14T05:05:58.356Z,11.83
2018-12-14T05:08:27.944Z,12.40
2018-12-14T05:10:56.857Z,13.10
2018-12-14T05:13:25.740Z,13.77
2018-12-14T05:15:54.676Z,11.33
2018-12-14T05:18:23.698Z,12.33
2018-12-14T05:20:52.992Z,12.33
2018-12-14T05:23:22.810Z,11.77
2018-12-14T05:25:51.838Z,12.53
2018-12-14T05:28:21.307Z,9.83
2018-12-14T05:30:50.279Z,13.77
2018-12-14T05:33:19.325Z,10.33
2018-12-14T05:35:48.362Z,12.97
2018-12-14T05:38:17.264Z,12.80
2018-12-14T05:40:46.275Z,10.70
2018-12-14T05:43:15.170Z,11.47
2018-12-14T05:45:44.103Z,11.53
2018-12-14T05:48:13.132Z,13.43
2018-12-14T05:50:42.044Z,12.43
2018-12-14T05:53:11.077Z,14.43
2018-12-14T05:55:40.655Z,13.43
2018-12-14T05:58:09.781Z,14.27
2018-12-14T06:00:38.636Z,12.47
2018-12-14T06:03:07.623Z,12.27
2018-12-14T06:05:36.552Z,12.03
2018-12-14T06:08:05.581Z,12.63
2018-12-14T06:10:34.717Z,10.07
2018-12-14T06:13:09.074Z,12.03
2018-12-14T06:15:34.947Z,12.83
2018-12-14T06:18:03.905Z,13.20
2018-12-14T06:20:32.774Z,14.37
2018-12-14T06:23:01.647Z,16.87
2018-12-14T06:25:30.656Z,12.63
2018-12-14T06:28:00.628Z,12.63
2018-12-14T06:30:29.735Z,13.87
2018-12-14T06:32:58.607Z,13.87
2018-12-14T06:35:27.515Z,12.80
2018-12-14T06:37:56.447Z,13.43
2018-12-14T06:40:25.285Z,14.40
2018-12-14T06:42:54.174Z,13.20
2018-12-14T06:45:23.337Z,15.03
2018-12-14T06:47:52.162Z,14.07
2018-12-14T06:50:21.050Z,16.47
2018-12-14T06:52:50.608Z,15.33
2018-12-14T06:55:19.594Z,12.80
2018-12-14T06:57:48.501Z,13.57
2018-12-14T07:00:17.517Z,17.83
2018-12-14T07:02:46.434Z,19.27
2018-12-14T07:05:15.409Z,15.07
2018-12-14T07:07:44.592Z,15.20
2018-12-14T07:10:13.485Z,13.97
2018-12-14T07:12:42.344Z,12.93
2018-12-14T07:15:11.622Z,13.83
2018-12-14T07:17:40.485Z,15.07
2018-12-14T07:20:09.750Z,15.63
2018-12-14T07:22:38.707Z,13.57
2018-12-14T07:25:07.783Z,17.00
2018-12-14T07:27:36.613Z,16.20
2018-12-14T07:30:06.623Z,16.20
2018-12-14T07:32:37.996Z,15.57
2018-12-14T07:35:06.992Z,16.87
2018-12-14T07:37:36.063Z,15.27
2018-12-14T07:40:06.354Z,14.93
2018-12-14T07:42:35.952Z,15.63
2018-12-14T07:45:06.145Z,13.87
2018-12-14T07:47:35.039Z,15.60
2018-12-14T07:50:04.593Z,15.03
2018-12-14T07:52:33.446Z,14.90
2018-12-14T07:55:02.351Z,16.13
2018-12-14T07:57:31.368Z,15.37
2018-12-14T08:00:00.223Z,18.40
2018-12-14T08:02:29.192Z,16.00
2018-12-14T08:04:58.112Z,19.57
2018-12-14T08:07:27.262Z,20.90
2018-12-14T08:09:56.224Z,16.83
2018-12-14T08:12:25.212Z,19.97
2018-12-14T08:14:54.091Z,15.90
2018-12-14T08:17:22.939Z,19.40
2018-12-14T08:19:51.959Z,18.10
2018-12-14T08:22:20.899Z,22.50
2018-12-14T08:24:49.788Z,17.53
2018-12-14T08:27:18.705Z,17.57
2018-12-14T08:29:47.642Z,14.77
2018-12-14T08:32:16.966Z,16.23
2018-12-14T08:34:50.891Z,17.27
2018-12-14T08:37:17.035Z,17.27
2018-12-14T08:39:45.959Z,18.57
2018-12-14T08:42:14.861Z,15.13
2018-12-14T08:44:43.727Z,16.90
2018-12-14T08:47:12.781Z,14.80
2018-12-14T08:49:41.676Z,16.93
2018-12-14T08:52:10.624Z,19.40
2018-12-14T08:54:39.757Z,16.20
2018-12-14T08:57:08.646Z,19.80
2018-12-14T08:59:37.551Z,18.40
2018-12-14T09:02:06.696Z,18.47
2018-12-14T09:04:35.570Z,16.77
2018-12-14T09:07:04.418Z,18.27
2018-12-14T09:09:33.348Z,16.77
2018-12-14T09:12:02.756Z,18.67
2018-12-14T09:14:32.019Z,17.87
2018-12-14T09:17:00.936Z,15.83
2018-12-14T09:19:29.809Z,17.63
2018-12-14T09:21:58.661Z,14.93
2018-12-14T09:24:27.633Z,15.97
2018-12-14T09:26:56.537Z,16.00
2018-12-14T09:29:25.908Z,16.07
2018-12-14T09:31:54.934Z,16.47
2018-12-14T09:34:23.786Z,16.83
2018-12-14T09:36:52.751Z,17.13
2018-12-14T09:39:21.710Z,15.93
2018-12-14T09:41:50.717Z,16.03
2018-12-14T09:44:19.618Z,17.93
2018-12-14T09:46:48.643Z,19.67
2018-12-14T09:49:17.613Z,17.90
2018-12-14T09:51:46.734Z,17.40
2018-12-14T09:54:15.790Z,16.63
2018-12-14T09:56:44.763Z,18.57
2018-12-14T09:59:13.623Z,19.40
2018-12-14T10:01:42.620Z,18.47
2018-12-14T10:04:11.442Z,16.97
2018-12-14T10:06:40.848Z,17.03
2018-12-14T10:09:09.846Z,17.97
2018-12-14T10:11:38.813Z,16.47
2018-12-14T10:14:08.739Z,15.97
2018-12-14T10:16:37.703Z,18.97
2018-12-14T10:19:06.957Z,18.03
2018-12-14T10:21:36.206Z,18.13
2018-12-14T10:24:05.087Z,18.23
2018-12-14T10:26:34.053Z,17.30
2018-12-14T10:29:03.042Z,14.30
2018-12-14T10:31:32.056Z,17.20
2018-12-14T10:34:01.229Z,17.03
2018-12-14T10:36:30.454Z,19.50
2018-12-14T10:38:59.446Z,16.80
2018-12-14T10:41:28.400Z,16.27
2018-12-14T10:43:57.405Z,13.70
2018-12-14T10:46:26.304Z,14.37
2018-12-14T10:48:55.159Z,16.63
2018-12-14T10:51:24.422Z,14.47
2018-12-14T10:53:53.398Z,16.37
2018-12-14T10:56:22.246Z,12.73
2018-12-14T10:58:51.141Z,15.80
2018-12-14T11:01:25.562Z,14.83
2018-12-14T11:03:54.574Z,18.53
2018-12-14T11:06:23.469Z,15.63
2018-12-14T11:08:53.326Z,15.43
2018-12-14T11:11:22.231Z,13.13
2018-12-14T11:13:51.128Z,14.57
2018-12-14T11:16:20.263Z,16.97
2018-12-14T11:18:49.241Z,13.70
2018-12-14T11:21:18.083Z,15.67
2018-12-14T11:23:46.968Z,16.23
2018-12-14T11:26:15.900Z,16.03
2018-12-14T11:28:44.880Z,14.07
2018-12-14T11:31:14.547Z,17.93
2018-12-14T11:33:43.580Z,15.57
2018-12-14T11:36:13.036Z,15.83
2018-12-14T11:38:41.929Z,15.60
2018-12-14T11:41:10.903Z,13.90
2018-12-14T11:43:39.957Z,16.53
2018-12-14T11:46:08.919Z,15.93
2018-12-14T11:48:37.975Z,17.13
2018-12-14T11:51:09.037Z,15.90
2018-12-14T11:53:39.915Z,17.40
2018-12-14T11:56:09.153Z,18.90
2018-12-14T11:58:38.072Z,16.60
2018-12-14T12:01:07.047Z,17.77
2018-12-14T12:03:36.032Z,18.30
2018-12-14T12:06:05.025Z,15.60
2018-12-14T12:08:33.959Z,16.80
2018-12-14T12:11:03.306Z,21.03
2018-12-14T12:13:32.198Z,17.60
2018-12-14T12:16:01.159Z,17.27
2018-12-14T12:18:30.109Z,16.80
2018-12-14T12:20:58.995Z,18.03
2018-12-14T12:23:28.175Z,18.93
2018-12-14T12:25:57.137Z,18.73
2018-12-14T12:28:26.003Z,15.97
2018-12-14T12:30:55.039Z,16.47
2018-12-14T12:33:24.045Z,16.53
2018-12-14T12:35:53.035Z,17.60
2018-12-14T12:38:21.953Z,17.00
2018-12-14T12:40:50.952Z,16.17
2018-12-14T12:43:19.847Z,15.60
2018-12-14T12:45:48.777Z,17.50
2018-12-14T12:48:17.835Z,15.07
2018-12-14T12:50:46.728Z,14.63
2018-12-14T12:53:18.490Z,16.47
2018-12-14T12:55:47.813Z,16.60
2018-12-14T12:58:17.109Z,17.43
2018-12-14T13:00:46.077Z,16.93
2018-12-14T13:03:14.954Z,19.37
2018-12-14T13:05:43.854Z,20.53
2018-12-14T13:08:13.070Z,18.30
2018-12-14T13:10:41.931Z,19.97
2018-12-14T13:13:10.798Z,19.67
2018-12-14T13:15:39.722Z,18.20
2018-12-14T13:18:08.861Z,19.30
2018-12-14T13:20:38.013Z,21.53
2018-12-14T13:23:06.966Z,24.03
2018-12-14T13:25:35.846Z,22.10
2018-12-14T13:28:05.380Z,20.97
2018-12-14T13:30:35.043Z,22.57
2018-12-14T13:33:04.348Z,26.00
2018-12-14T13:35:33.238Z,21.77
2018-12-14T13:38:02.717Z,22.83
2018-12-14T13:40:31.668Z,21.90
2018-12-14T13:43:00.654Z,21.90
2018-12-14T13:45:30.001Z,23.63
2018-12-14T13:47:59.343Z,21.50
2018-12-14T13:50:28.271Z,27.30
2018-12-14T13:52:57.169Z,23.00
2018-12-14T13:55:26.195Z,23.57
2018-12-14T13:57:55.240Z,24.30
2018-12-14T14:00:24.267Z,21.37
2018-12-14T14:02:53.160Z,21.47
2018-12-14T14:05:22.123Z,22.90
2018-12-14T14:07:51.037Z,23.57
2018-12-14T14:10:19.987Z,23.43
2018-12-14T14:12:48.865Z,21.23
2018-12-14T14:15:20.869Z,25.10
2018-12-14T14:17:48.694Z,23.10
2018-12-14T14:20:18.121Z,21.20
2018-12-14T14:22:47.353Z,18.33
2018-12-14T14:25:17.595Z,18.63
2018-12-14T14:27:46.750Z,23.27
2018-12-14T14:30:15.654Z,21.73
2018-12-14T14:32:45.147Z,23.67
2018-12-14T14:35:14.132Z,22.90
2018-12-14T14:37:42.979Z,24.13
2018-12-14T14:40:12.095Z,21.93
2018-12-14T14:42:41.078Z,23.03
2018-12-14T14:45:09.999Z,23.10
2018-12-14T14:47:39.348Z,21.70
2018-12-14T14:50:10.247Z,25.47
2018-12-14T14:52:39.250Z,21.80
2018-12-14T14:55:08.295Z,18.57
2018-12-14T14:57:38.276Z,19.77
2018-12-14T15:00:08.546Z,25.93
2018-12-14T15:02:37.716Z,19.40
2018-12-14T15:05:07.206Z,21.27
2018-12-14T15:07:36.424Z,19.00
2018-12-14T15:10:07.016Z,17.73
2018-12-14T15:12:35.993Z,20.47
2018-12-14T15:15:06.767Z,21.00
2018-12-14T15:17:36.102Z,19.53
2018-12-14T15:20:05.436Z,18.93
2018-12-14T15:22:34.342Z,21.20
2018-12-14T15:25:03.350Z,22.77
2018-12-14T15:27:32.276Z,19.80
2018-12-14T15:30:01.287Z,22.23
2018-12-14T15:32:30.235Z,22.33
2018-12-14T15:34:59.346Z,27.50
2018-12-14T15:37:28.458Z,22.33
2018-12-14T15:39:57.501Z,20.47
2018-12-14T15:42:26.365Z,25.97
2018-12-14T15:44:55.313Z,27.27
2018-12-14T15:47:24.361Z,23.47
2018-12-14T15:49:53.424Z,20.97
2018-12-14T15:52:22.423Z,21.00
2018-12-14T15:54:51.365Z,23.73
2018-12-14T15:57:20.695Z,24.27
2018-12-14T15:59:49.587Z,21.27
2018-12-14T16:02:18.588Z,23.53
2018-12-14T16:04:47.603Z,24.60
2018-12-14T16:07:16.577Z,25.20
2018-12-14T16:09:45.530Z,21.63
2018-12-14T16:12:14.499Z,24.47
2018-12-14T16:14:46.216Z,26.03
2018-12-14T16:17:15.185Z,24.50
2018-12-14T16:19:44.436Z,22.90
2018-12-14T16:22:13.496Z,20.13
2018-12-14T16:24:42.531Z,20.30
2018-12-14T16:27:11.534Z,19.40
2018-12-14T16:29:40.437Z,19.60
2018-12-14T16:32:09.335Z,22.67
2018-12-14T16:34:38.265Z,23.90
2018-12-14T16:37:07.256Z,19.33
2018-12-14T16:39:36.375Z,19.97
2018-12-14T16:42:05.411Z,21.03
2018-12-14T16:44:34.343Z,21.13
2018-12-14T16:47:03.341Z,21.33
2018-12-14T16:49:32.265Z,18.13
2018-12-14T16:52:01.376Z,25.30
2018-12-14T16:54:30.283Z,21.70
2018-12-14T16:56:59.193Z,19.27
2018-12-14T16:59:28.225Z,20.93
2018-12-14T17:01:57.152Z,21.93
2018-12-14T17:04:26.164Z,20.77
2018-12-14T17:06:55.162Z,20.33
2018-12-14T17:09:24.144Z,21.80
2018-12-14T17:11:52.994Z,20.57
2018-12-14T17:14:22.161Z,19.90
2018-12-14T17:16:51.144Z,20.70
2018-12-14T17:19:20.030Z,18.70
2018-12-14T17:21:49.054Z,20.50
2018-12-14T17:24:18.065Z,23.67
2018-12-14T17:26:47.151Z,20.43
2018-12-14T17:29:16.539Z,19.50
2018-12-14T17:31:45.465Z,23.97
2018-12-14T17:34:14.413Z,18.40
2018-12-14T17:36:43.444Z,22.60
2018-12-14T17:39:12.544Z,22.80
2018-12-14T17:41:41.514Z,20.53
2018-12-14T17:44:10.644Z,28.13
2018-12-14T17:46:39.928Z,25.73
2018-12-14T17:49:08.778Z,29.07
2018-12-14T17:51:38.003Z,23.37
2018-12-14T17:54:06.912Z,22.57
2018-12-14T17:56:35.820Z,22.43
2018-12-14T17:59:05.308Z,24.57
2018-12-14T18:01:34.396Z,21.77
2018-12-14T18:04:05.476Z,26.43
2018-12-14T18:06:35.860Z,20.93
2018-12-14T18:09:05.810Z,20.93
2018-12-14T18:11:35.406Z,21.50
2018-12-14T18:14:04.415Z,25.20
2018-12-14T18:16:33.354Z,23.50
2018-12-14T18:19:02.541Z,23.53
2018-12-14T18:21:31.500Z,20.40
2018-12-14T18:24:00.708Z,21.23
2018-12-14T18:26:29.998Z,22.73
2018-12-14T18:28:58.877Z,21.03
2018-12-14T18:31:28.523Z,18.23
2018-12-14T18:33:57.463Z,20.90
2018-12-14T18:36:26.357Z,24.63
2018-12-14T18:38:55.486Z,21.93
2018-12-14T18:41:24.668Z,24.40
2018-12-14T18:43:53.653Z,23.53
2018-12-14T18:46:23.899Z,24.93
2018-12-14T18:48:52.911Z,23.60
2018-12-14T18:51:21.903Z,24.80
2018-12-14T18:53:56.351Z,20.97
2018-12-14T18:56:26.439Z,25.73
2018-12-14T18:58:56.326Z,22.70
2018-12-14T19:01:25.203Z,24.40
2018-12-14T19:03:57.365Z,25.17
2018-12-14T19:06:26.687Z,21.67
2018-12-14T19:08:55.565Z,26.10
2018-12-14T19:11:24.612Z,20.37
2018-12-14T19:13:53.511Z,26.33
2018-12-14T19:16:22.357Z,24.37
2018-12-14T19:18:51.370Z,23.90
2018-12-14T19:21:20.383Z,24.13
2018-12-14T19:23:49.295Z,26.27
2018-12-14T19:26:18.243Z,26.63
2018-12-14T19:28:47.415Z,29.73
2018-12-14T19:31:16.381Z,29.20
2018-12-14T19:33:45.288Z,30.23
2018-12-14T19:36:14.429Z,25.03
2018-12-14T19:38:43.457Z,29.17
2018-12-14T19:41:12.318Z,31.00
2018-12-14T19:43:41.547Z,27.33
2018-12-14T19:46:10.570Z,29.00
2018-12-14T19:48:39.460Z,31.50
2018-12-14T19:51:08.341Z,28.77
2018-12-14T19:53:37.435Z,33.10
2018-12-14T19:56:06.368Z,32.27
2018-12-14T19:58:35.251Z,29.03
2018-12-14T20:01:04.409Z,29.73
2018-12-14T20:03:33.395Z,29.30
2018-12-14T20:06:03.450Z,31.17
2018-12-14T20:08:32.416Z,28.93
2018-12-14T20:11:01.310Z,30.97
2018-12-14T20:13:30.421Z,33.17
2018-12-14T20:16:00.135Z,33.07
2018-12-14T20:18:29.332Z,32.30
2018-12-14T20:20:58.475Z,34.47
2018-12-14T20:23:27.963Z,33.37
2018-12-14T20:25:57.478Z,30.67
2018-12-14T20:28:26.739Z,33.00
2018-12-14T20:30:55.798Z,35.73
2018-12-14T20:33:25.362Z,33.97
2018-12-14T20:35:54.414Z,32.40
2018-12-14T20:38:23.456Z,31.93
2018-12-14T20:40:53.933Z,33.30
2018-12-14T20:43:24.314Z,46.90
2018-12-14T20:45:54.038Z,33.37
2018-12-14T20:48:28.167Z,31.57
2018-12-14T20:50:57.183Z,37.50
2018-12-14T20:53:26.785Z,29.43
2018-12-14T20:55:56.587Z,35.40
2018-12-14T20:58:25.918Z,36.67
2018-12-14T21:00:54.891Z,34.93
2018-12-14T21:03:23.796Z,34.70
2018-12-14T21:05:53.307Z,36.53
2018-12-14T21:08:22.320Z,33.07
2018-12-14T21:10:51.258Z,37.73
2018-12-14T21:13:20.766Z,32.73
2018-12-14T21:15:49.741Z,37.57
2018-12-14T21:18:18.923Z,33.80
2018-12-14T21:20:47.951Z,32.20
2018-12-14T21:23:17.310Z,36.07
2018-12-14T21:25:47.285Z,34.33
2018-12-14T21:28:16.354Z,30.37
2018-12-14T21:30:45.452Z,38.77
2018-12-14T21:33:15.522Z,44.97
2018-12-14T21:35:44.755Z,34.00
2018-12-14T21:38:13.728Z,35.23
2018-12-14T21:40:42.837Z,36.10
2018-12-14T21:43:12.109Z,34.37
2018-12-14T21:45:41.099Z,37.13
2018-12-14T21:48:10.731Z,35.57
2018-12-14T21:50:40.200Z,36.17
2018-12-14T21:53:14.401Z,35.27
2018-12-14T21:55:40.266Z,35.27
2018-12-14T21:58:10.354Z,37.17
2018-12-14T22:00:39.380Z,39.67
2018-12-14T22:03:08.824Z,36.00
2018-12-14T22:05:37.862Z,40.37
2018-12-14T22:08:07.203Z,43.67
2018-12-14T22:10:36.133Z,45.83
2018-12-14T22:13:05.055Z,40.03
2018-12-14T22:15:33.951Z,40.30
2018-12-14T22:18:03.017Z,40.03
2018-12-14T22:20:32.672Z,39.50
2018-12-14T22:23:02.210Z,38.77
2018-12-14T22:25:31.466Z,37.00
2018-12-14T22:28:00.995Z,36.27
2018-12-14T22:30:30.729Z,36.30
2018-12-14T22:32:59.870Z,38.10
2018-12-14T22:35:30.045Z,40.27
2018-12-14T22:37:59.193Z,40.87
2018-12-14T22:40:28.956Z,40.87
2018-12-14T22:42:58.577Z,39.27
2018-12-14T22:45:28.651Z,39.33
2018-12-14T22:47:57.850Z,39.53
2018-12-14T22:50:28.282Z,39.10
2018-12-14T22:52:57.531Z,41.33
2018-12-14T22:55:28.559Z,36.77
2018-12-14T22:57:58.074Z,40.67
2018-12-14T23:00:27.846Z,34.73
2018-12-14T23:02:57.048Z,43.83
2018-12-14T23:05:27.559Z,39.70
2018-12-14T23:07:56.731Z,39.20
2018-12-14T23:10:25.821Z,42.03
2018-12-14T23:12:54.942Z,39.83
2018-12-14T23:15:24.211Z,38.63
2018-12-14T23:17:53.570Z,39.73
2018-12-14T23:20:23.035Z,41.10
2018-12-14T23:22:52.169Z,38.77
2018-12-14T23:25:21.341Z,40.07
2018-12-14T23:27:50.249Z,40.40
2018-12-14T23:30:19.233Z,39.23
2018-12-14T23:32:48.090Z,34.63
2018-12-14T23:35:17.005Z,43.97
2018-12-14T23:37:46.174Z,41.30
2018-12-14T23:40:15.114Z,38.80
2018-12-14T23:42:44.450Z,44.37
2018-12-14T23:45:13.453Z,43.30
2018-12-14T23:47:42.471Z,37.87
2018-12-14T23:50:11.996Z,38.70
2018-12-14T23:52:40.930Z,44.00
2018-12-14T23:55:10.325Z,40.60
2018-12-14T23:57:39.824Z,45.77
